SHT21B EGJB-EGLL
Flight info
| Callsign | SHT21B |
|---|---|
| Flight time | N/A |
| Altitude | 23000 |
| Route | ORIST L982 ROXOG |
| Aircraft | A319/M-SDE3FGHIRWY/LB1 |
Departure
| Time | 2026-04-21 17:02 |
|---|---|
| Airport | Guernsey Airport (EGJB) |
Arrival
| Time | N/A |
|---|---|
| Airport | London Heathrow Airport (EGLL) |
| Time | Latitude | Longitude | Altitude | Speed | Heading |
|---|---|---|---|---|---|
| 2026-04-21 17:02 | 49.61115 | -2.32869 | 12974 ft | 330 kts | 37° |
| 2026-04-21 17:02 | 49.62934 | -2.30606 | 13607 ft | 341 kts | 37° |
| 2026-04-21 17:02 | 49.64794 | -2.28293 | 14346 ft | 346 kts | 36° |
| 2026-04-21 17:02 | 49.66688 | -2.25946 | 15051 ft | 352 kts | 36° |
| 2026-04-21 17:03 | 49.68609 | -2.23574 | 15789 ft | 355 kts | 35° |
| 2026-04-21 17:03 | 49.70547 | -2.21183 | 16515 ft | 359 kts | 34° |
| 2026-04-21 17:03 | 49.72512 | -2.18757 | 17243 ft | 364 kts | 34° |
| 2026-04-21 17:03 | 49.74495 | -2.16307 | 18022 ft | 366 kts | 34° |
| 2026-04-21 17:04 | 49.76493 | -2.13833 | 18715 ft | 370 kts | 33° |
| 2026-04-21 17:04 | 49.78511 | -2.11329 | 19067 ft | 373 kts | 34° |
| 2026-04-21 17:04 | 49.80532 | -2.08813 | 19168 ft | 372 kts | 34° |
| 2026-04-21 17:04 | 49.82536 | -2.06307 | 19189 ft | 369 kts | 34° |
| 2026-04-21 17:05 | 49.84529 | -2.03820 | 19190 ft | 368 kts | 34° |
| 2026-04-21 17:05 | 49.86524 | -2.01336 | 19192 ft | 368 kts | 33° |
| 2026-04-21 17:05 | 49.88519 | -1.98855 | 19192 ft | 368 kts | 33° |
| 2026-04-21 17:05 | 49.90516 | -1.96371 | 19191 ft | 368 kts | 34° |
| 2026-04-21 17:06 | 49.92511 | -1.93885 | 19191 ft | 368 kts | 34° |
| 2026-04-21 17:06 | 49.94505 | -1.91395 | 19190 ft | 368 kts | 33° |
| 2026-04-21 17:06 | 49.96495 | -1.88902 | 19204 ft | 367 kts | 34° |
| 2026-04-21 17:06 | 49.98473 | -1.86416 | 19201 ft | 365 kts | 34° |
| 2026-04-21 17:07 | 50.00520 | -1.84129 | 19206 ft | 360 kts | 25° |
| 2026-04-21 17:07 | 50.02730 | -1.82338 | 19205 ft | 358 kts | 22° |
| 2026-04-21 17:07 | 50.04956 | -1.80586 | 19228 ft | 358 kts | 22° |
| 2026-04-21 17:07 | 50.07180 | -1.78832 | 19231 ft | 358 kts | 22° |
| 2026-04-21 17:08 | 50.09397 | -1.77080 | 19228 ft | 357 kts | 22° |
| 2026-04-21 17:08 | 50.11605 | -1.75310 | 19226 ft | 358 kts | 25° |
| 2026-04-21 17:08 | 50.13662 | -1.73068 | 19225 ft | 364 kts | 35° |
| 2026-04-21 17:08 | 50.15604 | -1.70537 | 19227 ft | 364 kts | 35° |
| 2026-04-21 17:09 | 50.19491 | -1.65489 | 19226 ft | 363 kts | 35° |
| 2026-04-21 17:09 | 50.21436 | -1.62966 | 19231 ft | 364 kts | 35° |
| 2026-04-21 17:09 | 50.23383 | -1.60442 | 19233 ft | 363 kts | 35° |
| 2026-04-21 17:10 | 50.25342 | -1.57962 | 19232 ft | 361 kts | 31° |
| 2026-04-21 17:10 | 50.27490 | -1.55989 | 19234 ft | 356 kts | 20° |
| 2026-04-21 17:10 | 50.29801 | -1.54678 | 19229 ft | 353 kts | 13° |
| 2026-04-21 17:10 | 50.32144 | -1.53540 | 19231 ft | 353 kts | 13° |
| 2026-04-21 17:11 | 50.34486 | -1.52398 | 19235 ft | 353 kts | 13° |
| 2026-04-21 17:11 | 50.36829 | -1.51250 | 19231 ft | 353 kts | 13° |
| 2026-04-21 17:11 | 50.39169 | -1.50101 | 19226 ft | 352 kts | 13° |
| 2026-04-21 17:11 | 50.41507 | -1.48953 | 19246 ft | 352 kts | 14° |
| 2026-04-21 17:12 | 50.43849 | -1.47802 | 19250 ft | 353 kts | 14° |
| 2026-04-21 17:12 | 50.46190 | -1.46648 | 19245 ft | 353 kts | 14° |
| 2026-04-21 17:12 | 50.48532 | -1.45491 | 19236 ft | 353 kts | 14° |
| 2026-04-21 17:12 | 50.50875 | -1.44334 | 19249 ft | 353 kts | 13° |
| 2026-04-21 17:13 | 50.53214 | -1.43150 | 19236 ft | 354 kts | 17° |
| 2026-04-21 17:13 | 50.55452 | -1.41474 | 19248 ft | 358 kts | 25° |
| 2026-04-21 17:13 | 50.57632 | -1.39595 | 19245 ft | 358 kts | 25° |
| 2026-04-21 17:13 | 50.59818 | -1.37712 | 19267 ft | 358 kts | 25° |
| 2026-04-21 17:14 | 50.62001 | -1.35834 | 19255 ft | 358 kts | 24° |
| 2026-04-21 17:14 | 50.64187 | -1.33953 | 19267 ft | 358 kts | 24° |
| 2026-04-21 17:14 | 50.66374 | -1.32073 | 19262 ft | 358 kts | 25° |
| 2026-04-21 17:14 | 50.68558 | -1.30194 | 19266 ft | 358 kts | 25° |
| 2026-04-21 17:15 | 50.70743 | -1.28316 | 19266 ft | 358 kts | 24° |
| 2026-04-21 17:15 | 50.72931 | -1.26433 | 19264 ft | 358 kts | 25° |
| 2026-04-21 17:15 | 50.75114 | -1.24554 | 19264 ft | 357 kts | 25° |
| 2026-04-21 17:15 | 50.77286 | -1.22629 | 19251 ft | 359 kts | 26° |
| 2026-04-21 17:16 | 50.79418 | -1.20545 | 19213 ft | 360 kts | 28° |
| 2026-04-21 17:16 | 50.81515 | -1.18374 | 18618 ft | 362 kts | 30° |
| 2026-04-21 17:16 | 50.83607 | -1.16151 | 17961 ft | 361 kts | 31° |
| 2026-04-21 17:16 | 50.85680 | -1.13940 | 17379 ft | 357 kts | 30° |
| 2026-04-21 17:17 | 50.87732 | -1.11763 | 16824 ft | 353 kts | 32° |
| 2026-04-21 17:17 | 50.89771 | -1.09612 | 16223 ft | 351 kts | 32° |
| 2026-04-21 17:17 | 50.91791 | -1.07497 | 15676 ft | 346 kts | 33° |
| 2026-04-21 17:17 | 50.93801 | -1.05409 | 15084 ft | 344 kts | 34° |
| 2026-04-21 17:18 | 50.95793 | -1.03345 | 14556 ft | 340 kts | 34° |
| 2026-04-21 17:18 | 50.97769 | -1.01305 | 13990 ft | 338 kts | 34° |
| 2026-04-21 17:18 | 50.99720 | -0.99276 | 13458 ft | 332 kts | 38° |
| 2026-04-21 17:18 | 51.01414 | -0.96881 | 13043 ft | 322 kts | 50° |
| 2026-04-21 17:19 | 51.02879 | -0.94251 | 12719 ft | 313 kts | 50° |
| 2026-04-21 17:19 | 51.04306 | -0.91714 | 12394 ft | 304 kts | 50° |
| 2026-04-21 17:19 | 51.05705 | -0.89239 | 12080 ft | 301 kts | 49° |
| 2026-04-21 17:19 | 51.07098 | -0.86771 | 11771 ft | 297 kts | 50° |
| 2026-04-21 17:20 | 51.08470 | -0.84339 | 11463 ft | 294 kts | 50° |
| 2026-04-21 17:20 | 51.09834 | -0.81912 | 11152 ft | 294 kts | 50° |